Time;durP1;ratioP1;P1;durP2;ratioP2;P2;SDS_P1;SDS_P2;PMS_P1;PMS_P2;Temp;Humidity;BMP_temperature;BMP_pressure;BME280_temperature;BME280_humidity;BME280_pressure;Samples;Min_cycle;Max_cycle;Signal;HPM_P1;HPM_P2
2023/10/10 00:00:54;;;;;;;7.35;3.10;;;16.10;87.60;;;;;;5104650;28;20490;-81
2023/10/10 00:03:24;;;;;;;6.93;2.97;;;16.10;87.60;;;;;;5101628;28;20044;-80
2023/10/10 00:05:55;;;;;;;7.25;3.10;;;16.10;87.60;;;;;;5105999;28;20591;-81
2023/10/10 00:08:27;;;;;;;9.17;3.20;;;16.10;87.60;;;;;;5107746;28;20056;-81
2023/10/10 00:10:55;;;;;;;8.95;3.35;;;16.10;87.60;;;;;;5107440;28;20048;-81
2023/10/10 00:13:25;;;;;;;6.18;3.03;;;16.20;87.70;;;;;;5109157;28;20044;-81
2023/10/10 00:15:55;;;;;;;6.32;3.10;;;16.20;87.70;;;;;;5101977;28;20052;-81
2023/10/10 00:18:24;;;;;;;7.80;3.15;;;16.20;87.70;;;;;;5085263;28;20126;-81
2023/10/10 00:21:06;;;;;;;5.43;2.73;;;16.20;87.70;;;;;;5092310;28;20040;-81
2023/10/10 00:23:41;;;;;;;7.05;3.38;;;16.20;87.70;;;;;;5107958;28;20056;-81
2023/10/10 00:26:12;;;;;;;8.48;3.30;;;16.20;87.70;;;;;;5092919;28;20131;-81
2023/10/10 00:28:42;;;;;;;7.93;3.28;;;16.20;87.70;;;;;;5092639;28;20570;-81
2023/10/10 00:31:10;;;;;;;7.45;3.05;;;16.20;87.70;;;;;;5085712;28;20478;-81
2023/10/10 00:33:40;;;;;;;7.03;3.13;;;16.20;87.70;;;;;;5085627;28;20051;-81
2023/10/10 00:36:11;;;;;;;6.30;2.90;;;16.20;87.80;;;;;;5092698;27;20075;-81
2023/10/10 00:38:38;;;;;;;6.32;3.00;;;16.20;87.80;;;;;;5092081;28;20059;-81
2023/10/10 00:41:10;;;;;;;7.32;3.08;;;16.20;87.80;;;;;;5103093;28;20048;-81
2023/10/10 00:43:37;;;;;;;8.32;3.10;;;16.20;87.80;;;;;;5109539;28;20048;-81
2023/10/10 00:46:05;;;;;;;7.47;3.10;;;16.20;87.80;;;;;;5092343;28;20076;-81
2023/10/10 00:48:34;;;;;;;9.35;3.40;;;16.20;87.80;;;;;;5118313;27;20055;-81
2023/10/10 00:51:10;;;;;;;8.18;3.40;;;16.20;87.80;;;;;;5087711;28;20080;-81
2023/10/10 00:53:39;;;;;;;6.57;3.17;;;16.20;87.90;;;;;;5089929;28;20143;-81
2023/10/10 00:56:07;;;;;;;8.10;3.10;;;16.20;87.80;;;;;;5084624;28;20051;-81
2023/10/10 00:58:39;;;;;;;7.50;3.20;;;16.20;87.90;;;;;;5089277;28;20054;-80
2023/10/10 01:01:09;;;;;;;7.10;3.00;;;16.20;87.90;;;;;;5091054;28;20102;-81
2023/10/10 01:03:39;;;;;;;8.95;3.15;;;16.20;87.90;;;;;;5107155;28;20063;-81
2023/10/10 01:06:20;;;;;;;8.27;3.42;;;16.20;87.90;;;;;;5090781;28;20036;-81
2023/10/10 01:08:50;;;;;;;6.85;3.08;;;16.20;88.00;;;;;;5088957;28;20225;-81
2023/10/10 01:11:19;;;;;;;9.50;3.37;;;16.20;88.00;;;;;;5077888;28;20631;-81
2023/10/10 01:13:46;;;;;;;8.10;3.50;;;16.20;88.10;;;;;;5083808;28;20075;-81
2023/10/10 01:16:13;;;;;;;8.23;3.60;;;16.20;88.00;;;;;;5087827;28;20052;-81
2023/10/10 01:18:51;;;;;;;6.50;3.15;;;16.20;88.00;;;;;;5081025;28;20055;-81
2023/10/10 01:21:28;;;;;;;7.78;3.17;;;16.20;88.10;;;;;;5071394;28;20150;-81
2023/10/10 01:23:58;;;;;;;8.10;3.40;;;16.20;88.00;;;;;;5101286;28;20044;-81
2023/10/10 01:26:28;;;;;;;7.35;3.20;;;16.20;88.00;;;;;;5092143;28;20105;-81
2023/10/10 01:28:59;;;;;;;8.90;3.20;;;16.20;88.10;;;;;;5091857;28;20427;-81
2023/10/10 01:31:30;;;;;;;7.32;2.97;;;16.20;88.10;;;;;;5090235;28;20644;-81
2023/10/10 01:34:00;;;;;;;9.15;3.53;;;16.20;88.10;;;;;;5084860;28;20126;-81
2023/10/10 01:36:29;;;;;;;8.53;3.23;;;16.20;88.20;;;;;;5091490;28;20514;-81
2023/10/10 01:39:22;;;;;;;9.32;3.50;;;16.20;88.20;;;;;;5108827;28;20044;-81
2023/10/10 01:41:52;;;;;;;8.45;3.20;;;16.20;88.20;;;;;;5103835;27;20049;-81
2023/10/10 01:44:22;;;;;;;7.85;3.40;;;16.20;88.20;;;;;;5087806;28;20047;-81
2023/10/10 01:46:51;;;;;;;7.35;3.40;;;16.20;88.20;;;;;;5091392;28;20056;-81
2023/10/10 01:49:21;;;;;;;8.67;3.50;;;16.20;88.20;;;;;;5108603;28;20043;-81
2023/10/10 01:51:55;;;;;;;8.32;3.30;;;16.20;88.20;;;;;;5090010;28;20129;-81
2023/10/10 01:54:34;;;;;;;6.32;2.83;;;16.20;88.20;;;;;;5103942;28;20525;-81
2023/10/10 01:57:04;;;;;;;7.13;2.90;;;16.20;88.20;;;;;;5104247;28;20662;-80
2023/10/10 01:59:35;;;;;;;8.00;2.78;;;16.20;88.20;;;;;;5108072;28;20059;-81
2023/10/10 02:02:07;;;;;;;5.37;2.67;;;16.20;88.20;;;;;;5085253;28;20538;-81
2023/10/10 02:04:36;;;;;;;7.55;3.00;;;16.20;88.30;;;;;;5086115;28;20592;-81
2023/10/10 02:07:06;;;;;;;7.97;2.90;;;16.20;88.30;;;;;;5091042;28;20060;-81
2023/10/10 02:09:34;;;;;;;6.90;2.80;;;16.20;88.20;;;;;;5085946;28;20082;-81
2023/10/10 02:12:16;;;;;;;11.32;3.40;;;16.20;88.20;;;;;;5090607;28;20614;-81
2023/10/10 02:14:43;;;;;;;6.80;3.13;;;16.20;88.30;;;;;;5084373;28;20086;-81
2023/10/10 02:17:21;;;;;;;7.15;3.13;;;16.20;88.30;;;;;;5090919;28;20059;-81
2023/10/10 02:19:57;;;;;;;7.22;3.15;;;16.20;88.20;;;;;;5116547;27;20518;-81
2023/10/10 02:22:47;;;;;;;7.38;3.47;;;16.20;88.20;;;;;;5125024;27;20371;-81
2023/10/10 02:25:39;;;;;;;8.95;3.50;;;16.20;88.20;;;;;;5125458;27;20745;-81
2023/10/10 02:28:19;;;;;;;6.83;3.40;;;16.20;88.20;;;;;;5089714;28;20040;-81
2023/10/10 02:30:50;;;;;;;8.48;3.80;;;16.20;88.20;;;;;;5071433;28;20057;-81
2023/10/10 02:33:30;;;;;;;8.35;4.15;;;16.20;88.30;;;;;;5090795;28;20044;-81
2023/10/10 02:35:57;;;;;;;8.25;4.30;;;16.20;88.20;;;;;;5083521;28;20101;-81
2023/10/10 02:38:31;;;;;;;7.50;4.22;;;16.20;88.20;;;;;;5105869;28;20129;-81
2023/10/10 02:41:22;;;;;;;7.73;4.27;;;16.20;88.20;;;;;;5075573;28;20713;-81
2023/10/10 02:44:08;;;;;;;8.65;4.75;;;16.20;88.20;;;;;;5098298;28;20079;-81
2023/10/10 02:46:38;;;;;;;9.75;4.47;;;16.20;88.20;;;;;;5090894;28;20047;-81
2023/10/10 02:49:22;;;;;;;7.60;4.10;;;16.20;88.20;;;;;;5102146;28;20053;-80
2023/10/10 02:51:51;;;;;;;7.47;3.83;;;16.10;88.10;;;;;;5078789;28;20531;-81
2023/10/10 02:54:32;;;;;;;10.43;4.07;;;16.10;88.10;;;;;;5093250;28;20585;-80
2023/10/10 02:57:26;;;;;;;8.75;4.18;;;16.10;88.00;;;;;;5091957;28;20051;-81
2023/10/10 02:59:59;;;;;;;9.85;4.03;;;16.10;88.00;;;;;;5103692;28;20152;-80
2023/10/10 03:02:30;;;;;;;7.55;3.60;;;16.10;88.00;;;;;;5092877;28;20157;-81
2023/10/10 03:05:15;;;;;;;8.02;4.20;;;16.00;88.00;;;;;;5093297;28;20164;-81
2023/10/10 03:07:44;;;;;;;8.67;4.10;;;16.00;88.00;;;;;;5090810;28;20879;-81
2023/10/10 03:10:22;;;;;;;7.30;3.90;;;16.00;88.00;;;;;;5085810;28;20063;-81
2023/10/10 03:12:51;;;;;;;9.02;4.00;;;16.00;88.00;;;;;;5105486;28;20391;-81
2023/10/10 03:15:29;;;;;;;8.43;4.03;;;16.00;88.00;;;;;;5094105;28;20044;-81
2023/10/10 03:20:51;;;;;;;10.13;4.13;;;16.00;88.00;;;;;;5089661;28;20071;-81
2023/10/10 03:23:32;;;;;;;8.65;4.30;;;16.00;88.00;;;;;;5106793;28;20059;-80
2023/10/10 03:26:05;;;;;;;8.00;4.47;;;16.00;88.00;;;;;;5090551;28;20041;-81
2023/10/10 03:28:34;;;;;;;8.25;4.00;;;16.00;88.10;;;;;;5112762;28;20391;-80
2023/10/10 03:31:10;;;;;;;8.68;4.22;;;16.00;88.10;;;;;;5093261;28;20047;-80
2023/10/10 03:33:37;;;;;;;10.23;4.33;;;16.00;88.20;;;;;;5093403;28;20525;-81
2023/10/10 03:36:13;;;;;;;8.63;4.03;;;16.00;88.20;;;;;;5093305;28;20070;-81
2023/10/10 03:38:57;;;;;;;7.82;4.35;;;16.00;88.20;;;;;;5106085;28;20063;-81
2023/10/10 05:23:34;;;;;;;18.13;9.53;;;16.00;89.20;;;;;;5096015;28;20155;-81
2023/10/10 05:26:05;;;;;;;18.00;9.60;;;16.00;89.10;;;;;;5097712;28;20055;-81
2023/10/10 05:28:33;;;;;;;17.00;9.48;;;16.00;89.10;;;;;;5117969;27;20040;-80
2023/10/10 05:31:02;;;;;;;16.50;8.93;;;16.00;89.10;;;;;;5107278;28;20059;-81
2023/10/10 05:33:30;;;;;;;16.42;8.82;;;15.90;89.10;;;;;;5108327;28;20139;-81
2023/10/10 05:36:06;;;;;;;16.17;9.30;;;15.90;89.00;;;;;;5107036;28;20054;-81
2023/10/10 05:38:39;;;;;;;18.30;9.73;;;15.90;89.10;;;;;;5107491;28;20485;-80
2023/10/10 05:41:07;;;;;;;19.15;10.23;;;15.90;89.10;;;;;;5105427;28;20529;-81
2023/10/10 05:43:35;;;;;;;18.67;9.85;;;15.90;89.10;;;;;;5098930;28;20048;-80
2023/10/10 05:46:04;;;;;;;18.98;10.30;;;15.80;89.00;;;;;;5107100;28;20111;-80
2023/10/10 05:48:32;;;;;;;14.63;8.93;;;15.90;89.10;;;;;;5096819;28;20052;-80
2023/10/10 05:51:03;;;;;;;17.55;9.48;;;15.80;89.00;;;;;;5108579;28;20051;-80
2023/10/10 05:53:32;;;;;;;18.50;10.07;;;15.80;89.00;;;;;;5090910;28;20048;-80
2023/10/10 05:56:12;;;;;;;17.95;9.95;;;15.80;89.00;;;;;;5091074;28;20044;-82
2023/10/10 05:58:42;;;;;;;18.30;10.05;;;15.80;89.00;;;;;;5104312;27;20048;-80
2023/10/10 06:01:12;;;;;;;16.63;9.67;;;15.80;88.90;;;;;;4994078;27;20571;-80
2023/10/10 06:03:40;;;;;;;18.30;9.77;;;15.80;88.90;;;;;;5071584;28;20909;-81
2023/10/10 06:06:12;;;;;;;18.65;10.73;;;15.80;88.90;;;;;;5061851;28;20047;-81
2023/10/10 06:08:41;;;;;;;18.58;9.90;;;15.80;88.90;;;;;;5048040;28;20134;-80
2023/10/10 06:11:10;;;;;;;21.23;10.23;;;15.80;89.00;;;;;;5067303;28;20132;-80
2023/10/10 06:13:39;;;;;;;20.17;10.83;;;15.80;88.90;;;;;;5067197;28;20130;-81
2023/10/10 06:16:07;;;;;;;19.90;10.45;;;15.80;88.90;;;;;;5065978;28;20049;-81
2023/10/10 06:18:34;;;;;;;16.02;10.48;;;15.80;88.90;;;;;;5050157;28;20758;-81
2023/10/10 06:21:07;;;;;;;17.48;9.90;;;15.70;89.00;;;;;;5050378;28;20049;-81
2023/10/10 06:23:36;;;;;;;16.92;9.25;;;15.80;89.00;;;;;;5047644;28;20064;-80
2023/10/10 06:26:04;;;;;;;14.53;8.93;;;15.80;89.00;;;;;;5048833;28;20111;-81
2023/10/10 06:28:35;;;;;;;16.90;8.98;;;15.70;89.00;;;;;;5065420;28;20103;-80
2023/10/10 06:31:09;;;;;;;17.02;10.20;;;15.70;89.00;;;;;;5066111;28;20063;-81
2023/10/10 06:33:40;;;;;;;20.95;10.00;;;15.70;89.10;;;;;;5067007;28;20564;-80
2023/10/10 06:36:32;;;;;;;21.08;9.65;;;15.70;89.10;;;;;;5065988;28;20516;-80
2023/10/10 06:39:19;;;;;;;21.73;11.03;;;15.70;89.10;;;;;;5068581;28;20138;-80
2023/10/10 06:41:49;;;;;;;20.30;10.88;;;15.70;89.20;;;;;;5066579;28;20045;-80
2023/10/10 06:44:31;;;;;;;24.08;13.00;;;15.70;89.20;;;;;;5041691;28;20868;-81
2023/10/10 06:47:00;;;;;;;25.58;12.65;;;15.70;89.20;;;;;;5048986;28;20051;-81
2023/10/10 06:49:43;;;;;;;23.92;13.10;;;15.70;89.30;;;;;;5049322;28;20128;-81
2023/10/10 06:52:17;;;;;;;28.23;13.63;;;15.70;89.30;;;;;;5063376;28;20569;-81
2023/10/10 06:54:53;;;;;;;27.90;13.65;;;15.80;89.40;;;;;;5066776;28;20057;-80
2023/10/10 06:57:21;;;;;;;25.80;13.88;;;15.80;89.50;;;;;;5066007;28;20041;-80
2023/10/10 06:59:50;;;;;;;26.58;14.38;;;15.80;89.60;;;;;;5051237;28;20110;-80
2023/10/10 07:02:21;;;;;;;24.33;13.15;;;15.80;89.50;;;;;;5064625;28;20049;-80
2023/10/10 07:04:53;;;;;;;25.07;13.23;;;15.80;89.60;;;;;;5058137;28;21279;-80
2023/10/10 07:07:21;;;;;;;26.13;13.55;;;15.80;89.70;;;;;;5064128;28;20145;-81
2023/10/10 07:09:57;;;;;;;23.15;13.77;;;15.80;89.80;;;;;;5060439;28;20134;-81
2023/10/10 07:12:28;;;;;;;23.60;13.48;;;15.80;89.90;;;;;;5063866;28;20106;-80
2023/10/10 07:14:56;;;;;;;25.23;14.30;;;15.90;89.90;;;;;;5065275;28;20176;-81
2023/10/10 07:17:27;;;;;;;25.87;13.73;;;15.90;89.90;;;;;;5065701;28;20061;-80
2023/10/10 07:22:38;;;;;;;29.20;16.23;;;16.00;89.90;;;;;;5067129;28;20045;-80
2023/10/10 07:25:18;;;;;;;33.70;18.02;;;16.00;89.90;;;;;;5065965;28;20061;-80
2023/10/10 07:27:45;;;;;;;36.00;18.40;;;16.00;90.00;;;;;;5066155;28;20148;-80
2023/10/10 07:30:17;;;;;;;37.90;20.53;;;16.00;90.10;;;;;;5049531;28;20131;-80
2023/10/10 07:32:48;;;;;;;40.55;21.60;;;16.00;90.10;;;;;;5049635;28;20597;-81
2023/10/10 07:35:15;;;;;;;39.45;20.33;;;16.00;90.20;;;;;;5049180;28;20069;-80
2023/10/10 07:37:43;;;;;;;46.55;25.30;;;16.00;90.10;;;;;;5067181;28;20128;-80
2023/10/10 07:40:20;;;;;;;49.08;23.83;;;16.00;90.30;;;;;;5050655;28;20053;-81
2023/10/10 07:42:50;;;;;;;45.37;22.63;;;16.10;90.30;;;;;;5049467;28;20061;-81
2023/10/10 07:45:26;;;;;;;52.20;25.05;;;16.10;90.30;;;;;;5056839;28;20579;-81
2023/10/10 07:50:48;;;;;;;53.88;25.63;;;16.20;90.40;;;;;;5069326;28;20542;-80
2023/10/10 07:53:17;;;;;;;51.75;25.40;;;16.20;90.40;;;;;;5069246;28;20065;-81
2023/10/10 07:56:00;;;;;;;48.37;23.43;;;16.20;90.30;;;;;;5052371;28;20075;-80
2023/10/10 07:58:42;;;;;;;49.85;24.67;;;16.20;90.10;;;;;;5068896;28;20107;-81
2023/10/10 08:01:16;;;;;;;45.15;21.35;;;16.20;90.10;;;;;;5067769;28;20053;-81
2023/10/10 08:03:45;;;;;;;46.97;22.90;;;16.20;90.10;;;;;;5067266;28;20057;-81
2023/10/10 08:06:16;;;;;;;45.55;21.98;;;16.20;90.10;;;;;;5056189;28;20057;-82
2023/10/10 08:08:44;;;;;;;52.60;25.27;;;16.20;90.00;;;;;;5074204;28;20134;-81
2023/10/10 08:11:26;;;;;;;54.28;27.80;;;16.20;90.00;;;;;;5080481;28;20128;-81
2023/10/10 08:13:53;;;;;;;51.78;23.38;;;16.20;90.00;;;;;;5093891;28;20061;-81
2023/10/10 08:16:22;;;;;;;52.13;26.08;;;16.20;89.90;;;;;;5077344;28;20048;-84
2023/10/10 08:18:52;;;;;;;49.05;25.27;;;16.30;89.80;;;;;;5061588;28;20528;-81
2023/10/10 08:21:22;;;;;;;57.23;28.30;;;16.20;89.80;;;;;;5072535;28;20078;-81
2023/10/10 08:23:56;;;;;;;54.55;25.33;;;16.30;89.90;;;;;;5067284;28;20968;-80
2023/10/10 08:26:29;;;;;;;60.08;29.48;;;16.20;89.80;;;;;;5069309;28;20150;-80
2023/10/10 08:28:56;;;;;;;60.60;29.40;;;16.30;89.80;;;;;;5052017;28;20557;-81
2023/10/10 08:31:23;;;;;;;59.30;27.73;;;16.30;89.70;;;;;;5069104;28;21053;-81
2023/10/10 08:33:51;;;;;;;55.93;28.73;;;16.30;89.70;;;;;;5069088;28;20091;-81
2023/10/10 08:36:24;;;;;;;50.63;26.75;;;16.30;89.70;;;;;;5051317;28;20044;-80
2023/10/10 08:38:52;;;;;;;59.38;28.63;;;16.30;89.50;;;;;;5052872;28;20046;-81
2023/10/10 08:41:22;;;;;;;58.45;27.77;;;16.30;89.60;;;;;;5068846;28;20131;-77
2023/10/10 08:43:57;;;;;;;58.72;28.20;;;16.30;89.60;;;;;;5067787;28;20140;-77
2023/10/10 08:46:29;;;;;;;54.53;26.20;;;16.40;89.60;;;;;;5043413;28;20597;-78
2023/10/10 08:48:59;;;;;;;51.90;25.45;;;16.30;89.60;;;;;;5066658;28;20060;-78
2023/10/10 08:51:32;;;;;;;56.17;29.70;;;16.40;89.70;;;;;;5058204;28;20049;-78
2023/10/10 08:54:01;;;;;;;53.40;27.17;;;16.40;89.80;;;;;;5067122;28;20056;-77
2023/10/10 08:56:37;;;;;;;51.42;24.30;;;16.40;89.70;;;;;;5064937;28;20047;-77
2023/10/10 08:59:07;;;;;;;53.43;25.50;;;16.40;89.60;;;;;;5049655;28;20045;-76
2023/10/10 09:01:35;;;;;;;55.13;27.15;;;16.40;89.60;;;;;;5059459;28;20603;-76
2023/10/10 09:04:04;;;;;;;50.72;24.75;;;16.50;89.50;;;;;;5067877;28;20061;-76
2023/10/10 09:06:52;;;;;;;56.05;27.83;;;16.50;89.50;;;;;;5070858;28;20045;-75
2023/10/10 09:09:35;;;;;;;53.50;27.60;;;16.50;89.50;;;;;;5068532;28;20179;-76
2023/10/10 09:12:03;;;;;;;54.90;27.73;;;16.50;89.20;;;;;;5064502;28;20057;-76
2023/10/10 09:14:43;;;;;;;50.70;25.50;;;16.60;89.00;;;;;;5068019;28;20078;-75
2023/10/10 09:17:12;;;;;;;53.67;28.40;;;16.60;89.00;;;;;;5047388;28;20049;-76
2023/10/10 09:19:46;;;;;;;54.88;27.67;;;16.60;89.00;;;;;;5065830;28;21006;-75
2023/10/10 09:22:25;;;;;;;50.20;25.77;;;16.60;88.90;;;;;;5067442;28;20055;-75
2023/10/10 09:24:55;;;;;;;51.77;25.70;;;16.70;89.00;;;;;;5067431;28;20186;-76
2023/10/10 09:27:27;;;;;;;56.80;28.58;;;16.80;88.90;;;;;;5066672;28;20045;-76
2023/10/10 09:29:57;;;;;;;48.58;25.25;;;16.80;88.70;;;;;;5064994;28;20133;-76
2023/10/10 09:32:37;;;;;;;48.72;24.88;;;16.90;88.60;;;;;;5065618;28;20041;-76
2023/10/10 09:35:08;;;;;;;48.80;25.83;;;16.90;88.40;;;;;;5065429;28;20064;-76
2023/10/10 09:37:41;;;;;;;49.07;26.57;;;17.00;88.20;;;;;;5056574;28;20049;-76
2023/10/10 09:40:16;;;;;;;53.72;26.35;;;17.00;87.80;;;;;;5060501;28;20049;-76
2023/10/10 09:42:53;;;;;;;47.88;25.95;;;17.10;87.60;;;;;;5046589;28;20055;-76
2023/10/10 09:45:36;;;;;;;48.22;25.17;;;17.20;87.60;;;;;;5068016;28;20150;-76
2023/10/10 09:48:06;;;;;;;48.25;26.10;;;17.20;87.60;;;;;;5064717;28;20045;-75
2023/10/10 09:50:37;;;;;;;50.53;25.70;;;17.20;87.30;;;;;;5063561;28;20542;-76
2023/10/10 09:53:20;;;;;;;50.10;26.92;;;17.40;87.00;;;;;;5064796;28;20048;-80
2023/10/10 09:55:53;;;;;;;44.78;25.63;;;17.40;86.90;;;;;;5059909;28;20053;-78
2023/10/10 09:58:28;;;;;;;46.53;23.83;;;17.50;86.50;;;;;;5065677;28;20052;-77
2023/10/10 10:01:04;;;;;;;43.17;23.63;;;17.50;86.30;;;;;;5047298;28;20041;-76
2023/10/10 10:03:49;;;;;;;45.37;24.37;;;17.60;86.20;;;;;;5065001;28;20127;-77
2023/10/10 10:06:59;;;;;;;45.88;24.20;;;17.60;86.20;;;;;;5046287;28;20049;-76
2023/10/10 10:09:57;;;;;;;42.95;23.63;;;17.80;85.70;;;;;;5000071;28;20073;-76
2023/10/10 10:12:42;;;;;;;39.20;21.50;;;17.80;85.50;;;;;;5063961;28;20963;-76
2023/10/10 10:15:19;;;;;;;42.25;23.77;;;17.90;85.10;;;;;;5045704;28;20060;-76
2023/10/10 10:18:11;;;;;;;40.73;22.30;;;18.00;84.60;;;;;;5065130;28;20057;-77
2023/10/10 10:20:46;;;;;;;40.80;22.38;;;18.00;84.20;;;;;;5065629;28;20857;-77
2023/10/10 10:23:26;;;;;;;39.00;22.20;;;18.00;84.20;;;;;;5065467;28;20572;-77
2023/10/10 10:25:55;;;;;;;38.03;20.92;;;18.10;84.00;;;;;;5066375;28;20055;-77
2023/10/10 10:28:28;;;;;;;42.05;22.42;;;18.20;84.00;;;;;;5069061;28;20057;-76
2023/10/10 10:31:07;;;;;;;41.93;23.43;;;18.20;84.00;;;;;;5055677;28;20187;-77
2023/10/10 10:33:52;;;;;;;38.60;21.23;;;18.30;83.90;;;;;;5065555;28;20064;-78
2023/10/10 10:36:20;;;;;;;34.42;19.67;;;18.30;83.70;;;;;;5041893;28;20060;-80
2023/10/10 10:41:51;;;;;;;35.80;20.42;;;18.40;83.40;;;;;;5065558;28;21016;-80
2023/10/10 10:44:46;;;;;;;36.87;20.10;;;18.50;83.00;;;;;;5064546;28;20049;-80
2023/10/10 10:47:48;;;;;;;35.67;19.67;;;18.60;82.80;;;;;;5056008;28;20612;-80
2023/10/10 10:50:45;;;;;;;33.97;18.77;;;18.70;82.50;;;;;;5059299;28;20057;-81
2023/10/10 10:53:32;;;;;;;30.67;17.55;;;18.80;82.50;;;;;;5042869;28;20050;-80
2023/10/10 10:56:37;;;;;;;31.83;20.15;;;18.90;81.70;;;;;;5048235;28;20049;-80
2023/10/10 10:59:13;;;;;;;33.97;18.60;;;18.90;81.20;;;;;;5065085;28;20045;-80
2023/10/10 11:01:43;;;;;;;31.35;18.02;;;19.00;81.20;;;;;;5046806;28;20164;-80
2023/10/10 11:04:18;;;;;;;35.95;19.33;;;19.10;81.40;;;;;;5059421;28;20052;-79
2023/10/10 11:06:59;;;;;;;31.75;16.98;;;19.20;81.20;;;;;;5049025;28;20518;-80
2023/10/10 11:09:29;;;;;;;35.38;18.83;;;19.30;80.30;;;;;;5065269;28;20084;-81
2023/10/10 11:12:06;;;;;;;33.80;17.50;;;19.40;80.20;;;;;;5052133;28;20056;-78
2023/10/10 11:14:36;;;;;;;30.10;17.08;;;19.40;79.40;;;;;;5066693;28;20549;-78
2023/10/10 11:17:03;;;;;;;29.33;17.40;;;19.50;79.30;;;;;;5067871;28;20904;-78
2023/10/10 11:19:40;;;;;;;31.27;17.67;;;19.50;79.10;;;;;;5067976;28;20049;-79
2023/10/10 11:22:38;;;;;;;32.28;16.45;;;19.50;79.10;;;;;;5066228;28;20135;-79
2023/10/10 11:25:04;;;;;;;29.73;16.60;;;19.60;78.70;;;;;;5065740;28;20053;-79
2023/10/10 11:27:37;;;;;;;27.98;15.75;;;19.60;78.30;;;;;;5058934;28;20045;-77
2023/10/10 11:30:18;;;;;;;26.80;13.98;;;19.60;78.60;;;;;;5071131;28;20077;-77
2023/10/10 11:32:47;;;;;;;29.17;16.75;;;19.70;78.70;;;;;;5069950;28;20056;-79
2023/10/10 11:35:26;;;;;;;31.05;17.55;;;19.70;79.10;;;;;;5066261;28;20088;-82
2023/10/10 11:38:06;;;;;;;26.90;16.57;;;19.80;78.50;;;;;;5052565;28;20077;-80
2023/10/10 11:40:44;;;;;;;28.85;15.25;;;19.90;77.60;;;;;;5075367;28;20048;-81
2023/10/10 11:43:12;;;;;;;27.65;16.10;;;20.00;78.00;;;;;;5069476;28;20055;-81
2023/10/10 11:45:40;;;;;;;24.83;15.48;;;20.00;77.30;;;;;;5052364;28;20053;-81
2023/10/10 11:48:12;;;;;;;23.55;11.30;;;20.10;76.70;;;;;;5068614;28;20079;-81
2023/10/10 11:50:44;;;;;;;27.80;14.73;;;20.20;75.30;;;;;;5048656;28;20056;-81
2023/10/10 11:53:15;;;;;;;26.83;16.13;;;20.30;75.60;;;;;;5065055;28;20045;-81
2023/10/10 11:55:42;;;;;;;25.25;15.10;;;20.30;76.20;;;;;;5065232;28;20494;-80
2023/10/10 11:58:16;;;;;;;25.85;15.32;;;20.30;76.40;;;;;;5068401;28;20132;-80
2023/10/10 12:01:03;;;;;;;26.97;16.43;;;20.40;75.50;;;;;;5069156;28;20056;-78
2023/10/10 12:03:42;;;;;;;22.83;12.57;;;20.50;75.70;;;;;;5062816;28;20254;-77
2023/10/10 12:06:14;;;;;;;21.88;13.35;;;20.50;74.30;;;;;;5050667;28;20168;-78
2023/10/10 12:08:45;;;;;;;21.48;12.45;;;20.50;74.20;;;;;;5067957;28;20076;-78
2023/10/10 12:11:21;;;;;;;22.25;10.30;;;20.50;73.90;;;;;;5061425;28;20062;-76
2023/10/10 12:13:48;;;;;;;18.43;11.17;;;20.50;73.50;;;;;;5068960;28;20056;-76
2023/10/10 12:16:23;;;;;;;19.63;9.32;;;20.50;73.50;;;;;;5061286;28;20290;-76
2023/10/10 12:18:50;;;;;;;19.50;9.35;;;20.50;73.00;;;;;;5067160;28;20081;-77
2023/10/10 12:21:20;;;;;;;16.35;8.32;;;20.50;72.90;;;;;;5065078;28;20869;-76
2023/10/10 12:23:50;;;;;;;17.42;10.18;;;20.50;72.20;;;;;;5061798;28;20059;-77
2023/10/10 12:26:18;;;;;;;22.77;12.83;;;20.50;72.20;;;;;;5066429;28;20045;-77
2023/10/10 12:28:47;;;;;;;21.75;11.27;;;20.50;73.00;;;;;;5067809;28;20382;-77
2023/10/10 12:31:16;;;;;;;23.10;13.32;;;20.50;73.40;;;;;;5050318;28;20049;-77
2023/10/10 12:33:45;;;;;;;23.05;13.40;;;20.50;73.40;;;;;;5060492;28;20056;-77
2023/10/10 12:36:12;;;;;;;20.02;11.85;;;20.50;73.40;;;;;;5049858;28;20045;-77
2023/10/10 12:38:40;;;;;;;24.90;13.10;;;20.60;73.30;;;;;;5049998;28;20119;-77
2023/10/10 12:41:11;;;;;;;23.45;12.57;;;20.60;73.70;;;;;;5066933;28;20351;-77
2023/10/10 12:43:38;;;;;;;21.70;12.13;;;20.70;73.10;;;;;;5049710;28;20125;-78
2023/10/10 12:46:07;;;;;;;19.30;11.65;;;20.70;71.80;;;;;;5096970;22;20048;-79
2023/10/10 12:48:39;;;;;;;20.27;11.27;;;20.70;72.00;;;;;;5039304;28;20101;-77
2023/10/10 12:51:09;;;;;;;19.07;11.63;;;20.70;71.50;;;;;;5048296;28;20116;-77
2023/10/10 12:53:39;;;;;;;18.58;11.07;;;20.70;71.20;;;;;;5046548;28;20724;-78
2023/10/10 12:56:16;;;;;;;20.83;11.77;;;20.70;71.10;;;;;;5046982;28;20068;-78
2023/10/10 12:58:51;;;;;;;20.45;12.25;;;20.70;71.10;;;;;;5047006;28;20104;-79
2023/10/10 13:01:22;;;;;;;20.80;12.23;;;20.70;71.30;;;;;;5046667;28;20754;-80
2023/10/10 13:03:50;;;;;;;20.50;11.57;;;20.60;71.50;;;;;;5016815;28;20058;-79
2023/10/10 13:06:22;;;;;;;19.80;13.40;;;20.60;71.40;;;;;;5047861;28;20276;-80
2023/10/10 13:08:55;;;;;;;21.05;12.05;;;20.60;71.10;;;;;;5060612;28;20053;-80
2023/10/10 13:11:32;;;;;;;21.23;12.63;;;20.60;71.40;;;;;;5046097;28;20510;-80
2023/10/10 13:14:09;;;;;;;18.98;12.20;;;20.50;71.00;;;;;;5042070;28;20156;-79
2023/10/10 13:16:52;;;;;;;21.40;12.80;;;20.50;71.30;;;;;;5045691;28;20167;-80
2023/10/10 13:19:21;;;;;;;18.35;11.45;;;20.50;71.60;;;;;;5046827;28;20253;-80
2023/10/10 13:21:52;;;;;;;20.80;12.68;;;20.50;71.90;;;;;;5041676;28;20737;-79
2023/10/10 13:24:20;;;;;;;18.90;11.68;;;20.50;71.90;;;;;;5030389;28;20061;-79
2023/10/10 13:26:49;;;;;;;21.02;11.90;;;20.40;71.60;;;;;;5042609;28;20558;-77
2023/10/10 13:29:17;;;;;;;18.80;11.40;;;20.40;71.70;;;;;;5034930;28;20054;-77
2023/10/10 13:31:45;;;;;;;19.92;11.80;;;20.40;72.20;;;;;;5043618;28;20296;-77
2023/10/10 13:34:13;;;;;;;18.50;11.25;;;20.40;72.20;;;;;;5040053;28;20902;-78
2023/10/10 13:36:40;;;;;;;20.52;11.32;;;20.40;72.00;;;;;;5028855;28;20046;-78
2023/10/10 13:39:09;;;;;;;24.00;12.52;;;20.30;72.40;;;;;;5045531;28;20045;-77
2023/10/10 13:41:36;;;;;;;20.27;12.23;;;20.30;72.50;;;;;;5041400;28;20045;-78
2023/10/10 13:44:05;;;;;;;21.35;12.32;;;20.30;72.50;;;;;;5027181;28;20538;-77
2023/10/10 13:46:34;;;;;;;20.95;12.68;;;20.40;72.70;;;;;;5025461;28;20060;-77
2023/10/10 13:49:04;;;;;;;20.70;12.50;;;20.40;72.70;;;;;;5029656;28;20049;-78
2023/10/10 13:51:39;;;;;;;22.85;13.05;;;20.40;72.90;;;;;;5044710;28;20053;-77
2023/10/10 13:54:06;;;;;;;21.97;13.67;;;20.40;73.00;;;;;;5043860;28;20049;-78
2023/10/10 13:56:33;;;;;;;23.20;13.82;;;20.50;72.70;;;;;;5044709;28;20529;-77
2023/10/10 13:59:00;;;;;;;24.08;14.20;;;20.50;72.30;;;;;;5027015;28;20058;-77
2023/10/10 14:01:36;;;;;;;22.38;14.10;;;20.50;72.20;;;;;;5033233;28;20502;-76
2023/10/10 14:04:13;;;;;;;24.23;13.93;;;20.50;72.10;;;;;;5026239;28;20168;-76
2023/10/10 14:06:46;;;;;;;23.60;14.97;;;20.50;71.70;;;;;;5030044;28;20434;-77
2023/10/10 14:09:21;;;;;;;22.42;14.10;;;20.50;71.80;;;;;;5046832;28;20128;-78
2023/10/10 14:11:51;;;;;;;23.52;14.13;;;20.50;71.20;;;;;;5046091;28;20124;-77
2023/10/10 14:14:19;;;;;;;22.02;13.60;;;20.50;71.00;;;;;;5045301;28;20049;-77
2023/10/10 14:16:48;;;;;;;21.93;13.27;;;20.50;71.10;;;;;;5045200;28;20063;-77
2023/10/10 14:19:15;;;;;;;25.20;13.80;;;20.50;70.70;;;;;;5046683;28;20733;-76
2023/10/10 14:21:42;;;;;;;22.70;13.85;;;20.40;70.90;;;;;;5040153;28;20061;-77
2023/10/10 14:24:12;;;;;;;22.52;12.30;;;20.40;70.90;;;;;;5040616;28;20049;-76
2023/10/10 14:26:43;;;;;;;23.73;12.88;;;20.40;71.10;;;;;;5024067;28;20053;-77
2023/10/10 14:29:12;;;;;;;25.10;13.23;;;20.40;71.00;;;;;;5040599;28;20137;-77
2023/10/10 14:31:42;;;;;;;20.08;12.35;;;20.40;71.10;;;;;;5042592;28;20486;-80
2023/10/10 14:34:19;;;;;;;21.85;13.65;;;20.40;71.20;;;;;;5044414;28;20883;-79
2023/10/10 14:36:46;;;;;;;22.20;12.73;;;20.40;70.80;;;;;;5042254;28;20049;-80
2023/10/10 14:39:28;;;;;;;20.85;12.18;;;20.40;71.20;;;;;;5042474;28;20061;-80
2023/10/10 14:41:56;;;;;;;21.23;12.53;;;20.40;71.50;;;;;;5027933;28;20049;-80
2023/10/10 14:44:26;;;;;;;22.00;12.75;;;20.40;71.50;;;;;;5045809;28;20495;-79
2023/10/10 14:46:54;;;;;;;20.95;12.20;;;20.40;71.30;;;;;;5044191;28;20050;-80
2023/10/10 14:49:29;;;;;;;19.17;12.10;;;20.50;71.40;;;;;;5045991;28;20045;-78
2023/10/10 14:51:57;;;;;;;21.60;13.33;;;20.50;71.30;;;;;;5036552;28;20054;-79
2023/10/10 14:54:24;;;;;;;21.65;12.70;;;20.50;71.20;;;;;;5045566;28;20276;-78
2023/10/10 14:56:51;;;;;;;20.52;11.90;;;20.50;71.20;;;;;;5043565;28;20087;-79